sensor_id;sensor_type;location;lat;lon;timestamp;P1;durP1;ratioP1;P2;durP2;ratioP2
85385;SDS011;75792;42.686;23.298;2024-03-08T00:01:00;6.10;;;4.65;;
85385;SDS011;75792;42.686;23.298;2024-03-08T00:03:26;3.42;;;3.00;;
85385;SDS011;75792;42.686;23.298;2024-03-08T00:05:52;4.03;;;3.63;;
85385;SDS011;75792;42.686;23.298;2024-03-08T00:08:17;2.83;;;2.33;;
85385;SDS011;75792;42.686;23.298;2024-03-08T00:10:42;6.40;;;5.90;;
85385;SDS011;75792;42.686;23.298;2024-03-08T00:13:08;4.50;;;3.10;;
85385;SDS011;75792;42.686;23.298;2024-03-08T00:15:33;4.32;;;2.92;;
85385;SDS011;75792;42.686;23.298;2024-03-08T00:17:59;3.42;;;2.97;;
85385;SDS011;75792;42.686;23.298;2024-03-08T00:20:25;3.53;;;3.20;;
85385;SDS011;75792;42.686;23.298;2024-03-08T00:22:50;3.33;;;2.95;;
85385;SDS011;75792;42.686;23.298;2024-03-08T00:25:16;2.97;;;2.58;;
85385;SDS011;75792;42.686;23.298;2024-03-08T00:27:41;2.92;;;2.25;;
85385;SDS011;75792;42.686;23.298;2024-03-08T00:30:07;2.65;;;1.98;;
85385;SDS011;75792;42.686;23.298;2024-03-08T00:32:33;2.63;;;2.40;;
85385;SDS011;75792;42.686;23.298;2024-03-08T00:34:58;2.08;;;1.77;;
85385;SDS011;75792;42.686;23.298;2024-03-08T00:37:24;1.98;;;1.85;;
85385;SDS011;75792;42.686;23.298;2024-03-08T00:39:50;1.95;;;1.80;;
85385;SDS011;75792;42.686;23.298;2024-03-08T00:42:16;2.33;;;1.38;;
85385;SDS011;75792;42.686;23.298;2024-03-08T00:44:43;1.73;;;1.60;;
85385;SDS011;75792;42.686;23.298;2024-03-08T00:47:08;2.20;;;2.00;;
85385;SDS011;75792;42.686;23.298;2024-03-08T00:49:34;2.33;;;1.92;;
85385;SDS011;75792;42.686;23.298;2024-03-08T00:52:01;2.83;;;2.08;;
85385;SDS011;75792;42.686;23.298;2024-03-08T00:54:27;4.35;;;3.95;;
85385;SDS011;75792;42.686;23.298;2024-03-08T00:56:52;1.40;;;1.20;;
85385;SDS011;75792;42.686;23.298;2024-03-08T00:59:18;1.70;;;1.40;;
85385;SDS011;75792;42.686;23.298;2024-03-08T01:01:46;2.08;;;1.88;;
85385;SDS011;75792;42.686;23.298;2024-03-08T01:04:11;2.33;;;2.13;;
85385;SDS011;75792;42.686;23.298;2024-03-08T01:06:37;2.17;;;1.70;;
85385;SDS011;75792;42.686;23.298;2024-03-08T01:09:02;1.80;;;1.63;;
85385;SDS011;75792;42.686;23.298;2024-03-08T01:11:28;2.03;;;1.45;;
85385;SDS011;75792;42.686;23.298;2024-03-08T01:13:53;3.35;;;3.13;;
85385;SDS011;75792;42.686;23.298;2024-03-08T01:16:19;2.38;;;2.17;;
85385;SDS011;75792;42.686;23.298;2024-03-08T01:18:47;2.35;;;2.25;;
85385;SDS011;75792;42.686;23.298;2024-03-08T01:21:13;1.83;;;1.70;;
85385;SDS011;75792;42.686;23.298;2024-03-08T01:23:38;2.13;;;1.90;;
85385;SDS011;75792;42.686;23.298;2024-03-08T01:26:04;1.77;;;1.67;;
85385;SDS011;75792;42.686;23.298;2024-03-08T01:28:29;2.38;;;2.17;;
85385;SDS011;75792;42.686;23.298;2024-03-08T01:30:55;2.40;;;2.10;;
85385;SDS011;75792;42.686;23.298;2024-03-08T01:33:24;2.50;;;1.77;;
85385;SDS011;75792;42.686;23.298;2024-03-08T01:35:53;2.60;;;2.08;;
85385;SDS011;75792;42.686;23.298;2024-03-08T01:38:19;3.97;;;2.58;;
85385;SDS011;75792;42.686;23.298;2024-03-08T01:40:46;1.40;;;1.13;;
85385;SDS011;75792;42.686;23.298;2024-03-08T01:43:18;3.13;;;2.92;;
85385;SDS011;75792;42.686;23.298;2024-03-08T01:45:45;1.45;;;1.17;;
85385;SDS011;75792;42.686;23.298;2024-03-08T01:48:10;1.65;;;1.48;;
85385;SDS011;75792;42.686;23.298;2024-03-08T01:50:37;2.17;;;1.80;;
85385;SDS011;75792;42.686;23.298;2024-03-08T01:53:04;1.65;;;1.50;;
85385;SDS011;75792;42.686;23.298;2024-03-08T01:57:56;1.35;;;1.23;;
85385;SDS011;75792;42.686;23.298;2024-03-08T02:00:22;2.38;;;1.83;;
85385;SDS011;75792;42.686;23.298;2024-03-08T02:02:48;1.83;;;1.73;;
85385;SDS011;75792;42.686;23.298;2024-03-08T02:05:15;2.40;;;2.20;;
85385;SDS011;75792;42.686;23.298;2024-03-08T02:07:41;5.40;;;5.05;;
85385;SDS011;75792;42.686;23.298;2024-03-08T02:10:09;3.35;;;3.15;;
85385;SDS011;75792;42.686;23.298;2024-03-08T02:12:35;1.75;;;1.55;;
85385;SDS011;75792;42.686;23.298;2024-03-08T02:15:01;2.30;;;1.90;;
85385;SDS011;75792;42.686;23.298;2024-03-08T02:17:26;2.67;;;2.30;;
85385;SDS011;75792;42.686;23.298;2024-03-08T02:19:51;2.60;;;2.40;;
85385;SDS011;75792;42.686;23.298;2024-03-08T02:22:17;2.30;;;1.60;;
85385;SDS011;75792;42.686;23.298;2024-03-08T02:24:42;3.40;;;3.20;;
85385;SDS011;75792;42.686;23.298;2024-03-08T02:27:08;2.38;;;2.17;;
85385;SDS011;75792;42.686;23.298;2024-03-08T02:29:36;3.35;;;2.17;;
85385;SDS011;75792;42.686;23.298;2024-03-08T02:32:02;2.15;;;1.80;;
85385;SDS011;75792;42.686;23.298;2024-03-08T02:34:28;2.38;;;2.20;;
85385;SDS011;75792;42.686;23.298;2024-03-08T02:36:56;2.58;;;2.03;;
85385;SDS011;75792;42.686;23.298;2024-03-08T02:39:21;3.13;;;2.45;;
85385;SDS011;75792;42.686;23.298;2024-03-08T02:41:47;2.35;;;2.15;;
85385;SDS011;75792;42.686;23.298;2024-03-08T02:44:12;3.08;;;1.90;;
85385;SDS011;75792;42.686;23.298;2024-03-08T02:46:38;2.13;;;1.85;;
85385;SDS011;75792;42.686;23.298;2024-03-08T02:49:03;1.58;;;1.48;;
85385;SDS011;75792;42.686;23.298;2024-03-08T02:51:29;1.90;;;1.80;;
85385;SDS011;75792;42.686;23.298;2024-03-08T02:53:58;1.67;;;1.58;;
85385;SDS011;75792;42.686;23.298;2024-03-08T02:56:24;2.28;;;1.85;;
85385;SDS011;75792;42.686;23.298;2024-03-08T02:58:49;1.75;;;1.65;;
85385;SDS011;75792;42.686;23.298;2024-03-08T03:01:15;3.70;;;3.50;;
85385;SDS011;75792;42.686;23.298;2024-03-08T03:03:41;1.75;;;1.65;;
85385;SDS011;75792;42.686;23.298;2024-03-08T03:06:06;1.63;;;1.52;;
85385;SDS011;75792;42.686;23.298;2024-03-08T03:08:32;1.90;;;1.80;;
85385;SDS011;75792;42.686;23.298;2024-03-08T03:10:57;2.13;;;2.03;;
85385;SDS011;75792;42.686;23.298;2024-03-08T03:13:23;2.38;;;2.00;;
85385;SDS011;75792;42.686;23.298;2024-03-08T03:15:48;2.30;;;2.03;;
85385;SDS011;75792;42.686;23.298;2024-03-08T03:18:13;2.40;;;1.63;;
85385;SDS011;75792;42.686;23.298;2024-03-08T03:20:40;3.17;;;2.97;;
85385;SDS011;75792;42.686;23.298;2024-03-08T03:23:07;2.33;;;2.13;;
85385;SDS011;75792;42.686;23.298;2024-03-08T03:25:39;3.63;;;2.72;;
85385;SDS011;75792;42.686;23.298;2024-03-08T03:28:06;2.00;;;1.83;;
85385;SDS011;75792;42.686;23.298;2024-03-08T03:30:32;2.38;;;1.73;;
85385;SDS011;75792;42.686;23.298;2024-03-08T03:32:58;1.77;;;1.67;;
85385;SDS011;75792;42.686;23.298;2024-03-08T03:35:26;2.28;;;2.10;;
85385;SDS011;75792;42.686;23.298;2024-03-08T03:37:52;1.50;;;1.27;;
85385;SDS011;75792;42.686;23.298;2024-03-08T03:40:30;1.83;;;1.73;;
85385;SDS011;75792;42.686;23.298;2024-03-08T03:42:56;2.38;;;2.28;;
85385;SDS011;75792;42.686;23.298;2024-03-08T03:45:22;2.92;;;1.25;;
85385;SDS011;75792;42.686;23.298;2024-03-08T03:47:48;1.48;;;1.38;;
85385;SDS011;75792;42.686;23.298;2024-03-08T03:50:13;1.80;;;1.30;;
85385;SDS011;75792;42.686;23.298;2024-03-08T03:52:39;1.50;;;1.17;;
85385;SDS011;75792;42.686;23.298;2024-03-08T03:55:04;2.20;;;1.90;;
85385;SDS011;75792;42.686;23.298;2024-03-08T03:57:30;1.63;;;1.48;;
85385;SDS011;75792;42.686;23.298;2024-03-08T03:59:56;1.60;;;1.50;;
85385;SDS011;75792;42.686;23.298;2024-03-08T04:02:23;2.97;;;2.83;;
85385;SDS011;75792;42.686;23.298;2024-03-08T04:04:51;2.25;;;2.15;;
85385;SDS011;75792;42.686;23.298;2024-03-08T04:07:17;1.25;;;1.15;;
85385;SDS011;75792;42.686;23.298;2024-03-08T04:09:42;2.45;;;2.25;;
85385;SDS011;75792;42.686;23.298;2024-03-08T04:12:08;1.60;;;1.50;;
85385;SDS011;75792;42.686;23.298;2024-03-08T04:14:34;1.50;;;1.38;;
85385;SDS011;75792;42.686;23.298;2024-03-08T04:17:00;1.73;;;1.63;;
85385;SDS011;75792;42.686;23.298;2024-03-08T04:19:25;1.75;;;1.65;;
85385;SDS011;75792;42.686;23.298;2024-03-08T04:21:51;2.88;;;1.75;;
85385;SDS011;75792;42.686;23.298;2024-03-08T04:24:17;1.80;;;1.70;;
85385;SDS011;75792;42.686;23.298;2024-03-08T04:26:42;2.72;;;2.53;;
85385;SDS011;75792;42.686;23.298;2024-03-08T04:29:07;2.53;;;2.35;;
85385;SDS011;75792;42.686;23.298;2024-03-08T04:31:33;2.20;;;1.30;;
85385;SDS011;75792;42.686;23.298;2024-03-08T04:33:58;3.85;;;3.65;;
85385;SDS011;75792;42.686;23.298;2024-03-08T04:36:24;2.53;;;2.33;;
85385;SDS011;75792;42.686;23.298;2024-03-08T04:38:50;2.53;;;2.33;;
85385;SDS011;75792;42.686;23.298;2024-03-08T04:41:16;3.78;;;2.88;;
85385;SDS011;75792;42.686;23.298;2024-03-08T04:43:42;2.88;;;2.42;;
85385;SDS011;75792;42.686;23.298;2024-03-08T04:46:07;1.92;;;1.73;;
85385;SDS011;75792;42.686;23.298;2024-03-08T04:48:33;2.53;;;2.33;;
85385;SDS011;75792;42.686;23.298;2024-03-08T04:51:01;2.20;;;1.98;;
85385;SDS011;75792;42.686;23.298;2024-03-08T04:53:27;3.28;;;1.85;;
85385;SDS011;75792;42.686;23.298;2024-03-08T04:55:54;2.25;;;1.77;;
85385;SDS011;75792;42.686;23.298;2024-03-08T04:58:19;3.22;;;2.92;;
85385;SDS011;75792;42.686;23.298;2024-03-08T05:00:46;3.55;;;2.55;;
85385;SDS011;75792;42.686;23.298;2024-03-08T05:03:11;3.40;;;3.10;;
85385;SDS011;75792;42.686;23.298;2024-03-08T05:05:36;3.05;;;2.78;;
85385;SDS011;75792;42.686;23.298;2024-03-08T05:08:02;4.07;;;2.53;;
85385;SDS011;75792;42.686;23.298;2024-03-08T05:10:27;3.22;;;2.67;;
85385;SDS011;75792;42.686;23.298;2024-03-08T05:12:53;4.15;;;3.67;;
85385;SDS011;75792;42.686;23.298;2024-03-08T05:15:18;4.68;;;3.53;;
85385;SDS011;75792;42.686;23.298;2024-03-08T05:17:45;3.85;;;3.10;;
85385;SDS011;75792;42.686;23.298;2024-03-08T05:20:11;8.48;;;7.60;;
85385;SDS011;75792;42.686;23.298;2024-03-08T05:22:38;6.55;;;3.35;;
85385;SDS011;75792;42.686;23.298;2024-03-08T05:25:05;6.22;;;3.83;;
85385;SDS011;75792;42.686;23.298;2024-03-08T05:27:33;8.45;;;5.90;;
85385;SDS011;75792;42.686;23.298;2024-03-08T05:29:59;4.60;;;3.95;;
85385;SDS011;75792;42.686;23.298;2024-03-08T05:32:24;5.15;;;4.65;;
85385;SDS011;75792;42.686;23.298;2024-03-08T05:34:51;4.88;;;3.63;;
85385;SDS011;75792;42.686;23.298;2024-03-08T05:37:17;5.75;;;5.25;;
85385;SDS011;75792;42.686;23.298;2024-03-08T05:39:42;6.93;;;3.38;;
85385;SDS011;75792;42.686;23.298;2024-03-08T05:42:09;6.78;;;6.15;;
85385;SDS011;75792;42.686;23.298;2024-03-08T05:44:35;6.13;;;4.68;;
85385;SDS011;75792;42.686;23.298;2024-03-08T05:47:00;6.35;;;4.70;;
85385;SDS011;75792;42.686;23.298;2024-03-08T05:49:26;4.88;;;3.30;;
85385;SDS011;75792;42.686;23.298;2024-03-08T05:51:51;5.45;;;4.10;;
85385;SDS011;75792;42.686;23.298;2024-03-08T05:54:17;6.82;;;4.53;;
85385;SDS011;75792;42.686;23.298;2024-03-08T05:56:42;4.90;;;3.22;;
85385;SDS011;75792;42.686;23.298;2024-03-08T05:59:08;8.18;;;5.13;;
85385;SDS011;75792;42.686;23.298;2024-03-08T06:01:35;8.30;;;7.32;;
85385;SDS011;75792;42.686;23.298;2024-03-08T06:06:27;4.57;;;3.25;;
85385;SDS011;75792;42.686;23.298;2024-03-08T06:08:53;8.05;;;4.65;;
85385;SDS011;75792;42.686;23.298;2024-03-08T06:11:21;5.75;;;4.03;;
85385;SDS011;75792;42.686;23.298;2024-03-08T06:13:47;6.03;;;4.03;;
85385;SDS011;75792;42.686;23.298;2024-03-08T06:16:13;5.70;;;4.88;;
85385;SDS011;75792;42.686;23.298;2024-03-08T06:18:38;6.05;;;4.72;;
85385;SDS011;75792;42.686;23.298;2024-03-08T06:21:07;6.78;;;5.10;;
85385;SDS011;75792;42.686;23.298;2024-03-08T06:23:41;7.07;;;5.35;;
85385;SDS011;75792;42.686;23.298;2024-03-08T06:26:09;5.75;;;5.07;;
85385;SDS011;75792;42.686;23.298;2024-03-08T06:28:35;8.02;;;4.63;;
85385;SDS011;75792;42.686;23.298;2024-03-08T06:31:00;6.07;;;4.45;;
85385;SDS011;75792;42.686;23.298;2024-03-08T06:33:27;5.68;;;4.32;;
85385;SDS011;75792;42.686;23.298;2024-03-08T06:35:53;6.93;;;4.35;;
85385;SDS011;75792;42.686;23.298;2024-03-08T06:38:25;6.78;;;4.75;;
85385;SDS011;75792;42.686;23.298;2024-03-08T06:40:50;7.60;;;6.90;;
85385;SDS011;75792;42.686;23.298;2024-03-08T06:43:17;6.50;;;4.35;;
85385;SDS011;75792;42.686;23.298;2024-03-08T06:45:43;7.75;;;7.05;;
85385;SDS011;75792;42.686;23.298;2024-03-08T06:48:15;11.65;;;4.93;;
85385;SDS011;75792;42.686;23.298;2024-03-08T06:50:46;5.88;;;4.07;;
85385;SDS011;75792;42.686;23.298;2024-03-08T06:53:12;4.47;;;3.45;;
85385;SDS011;75792;42.686;23.298;2024-03-08T06:55:38;6.60;;;4.38;;
85385;SDS011;75792;42.686;23.298;2024-03-08T06:58:04;4.75;;;3.60;;
85385;SDS011;75792;42.686;23.298;2024-03-08T07:00:29;6.55;;;4.05;;
85385;SDS011;75792;42.686;23.298;2024-03-08T07:02:55;4.75;;;3.55;;
85385;SDS011;75792;42.686;23.298;2024-03-08T07:05:22;4.38;;;3.90;;
85385;SDS011;75792;42.686;23.298;2024-03-08T07:07:49;5.40;;;4.43;;
85385;SDS011;75792;42.686;23.298;2024-03-08T07:10:15;4.93;;;3.80;;
85385;SDS011;75792;42.686;23.298;2024-03-08T07:12:41;5.25;;;3.88;;
85385;SDS011;75792;42.686;23.298;2024-03-08T07:15:07;7.15;;;4.25;;
85385;SDS011;75792;42.686;23.298;2024-03-08T07:17:38;5.05;;;4.53;;
85385;SDS011;75792;42.686;23.298;2024-03-08T07:20:04;4.88;;;3.88;;
85385;SDS011;75792;42.686;23.298;2024-03-08T07:22:35;10.77;;;5.22;;
85385;SDS011;75792;42.686;23.298;2024-03-08T07:25:02;11.00;;;7.78;;
85385;SDS011;75792;42.686;23.298;2024-03-08T07:27:52;6.75;;;6.15;;
85385;SDS011;75792;42.686;23.298;2024-03-08T07:30:23;6.85;;;4.22;;
85385;SDS011;75792;42.686;23.298;2024-03-08T07:33:08;6.25;;;5.18;;
85385;SDS011;75792;42.686;23.298;2024-03-08T07:35:36;7.75;;;4.32;;
85385;SDS011;75792;42.686;23.298;2024-03-08T07:38:06;8.05;;;4.90;;
85385;SDS011;75792;42.686;23.298;2024-03-08T07:40:39;6.63;;;3.72;;
85385;SDS011;75792;42.686;23.298;2024-03-08T07:43:09;6.50;;;5.20;;
85385;SDS011;75792;42.686;23.298;2024-03-08T07:45:35;8.75;;;4.88;;
85385;SDS011;75792;42.686;23.298;2024-03-08T07:48:01;12.38;;;5.32;;
85385;SDS011;75792;42.686;23.298;2024-03-08T07:50:28;7.25;;;5.85;;
85385;SDS011;75792;42.686;23.298;2024-03-08T07:52:53;8.93;;;6.65;;
85385;SDS011;75792;42.686;23.298;2024-03-08T07:55:19;8.43;;;4.65;;
85385;SDS011;75792;42.686;23.298;2024-03-08T07:57:45;8.00;;;4.50;;
85385;SDS011;75792;42.686;23.298;2024-03-08T08:00:12;9.48;;;4.85;;
85385;SDS011;75792;42.686;23.298;2024-03-08T08:02:42;8.38;;;4.90;;
85385;SDS011;75792;42.686;23.298;2024-03-08T08:05:10;6.43;;;4.25;;
85385;SDS011;75792;42.686;23.298;2024-03-08T08:07:36;6.55;;;5.13;;
85385;SDS011;75792;42.686;23.298;2024-03-08T08:10:01;7.70;;;4.82;;
85385;SDS011;75792;42.686;23.298;2024-03-08T08:12:26;6.03;;;4.72;;
85385;SDS011;75792;42.686;23.298;2024-03-08T08:14:54;8.27;;;5.60;;
85385;SDS011;75792;42.686;23.298;2024-03-08T08:17:19;10.02;;;5.93;;
85385;SDS011;75792;42.686;23.298;2024-03-08T08:19:45;6.32;;;4.90;;
85385;SDS011;75792;42.686;23.298;2024-03-08T08:22:11;8.10;;;6.63;;
85385;SDS011;75792;42.686;23.298;2024-03-08T08:24:36;8.85;;;6.68;;
85385;SDS011;75792;42.686;23.298;2024-03-08T08:27:02;9.25;;;6.18;;
85385;SDS011;75792;42.686;23.298;2024-03-08T08:29:28;6.05;;;4.78;;
85385;SDS011;75792;42.686;23.298;2024-03-08T08:34:24;9.98;;;5.53;;
85385;SDS011;75792;42.686;23.298;2024-03-08T08:36:51;7.25;;;5.68;;
85385;SDS011;75792;42.686;23.298;2024-03-08T08:39:16;10.50;;;5.38;;
85385;SDS011;75792;42.686;23.298;2024-03-08T08:41:42;11.23;;;5.75;;
85385;SDS011;75792;42.686;23.298;2024-03-08T08:44:07;7.15;;;4.88;;
85385;SDS011;75792;42.686;23.298;2024-03-08T08:46:37;8.85;;;5.03;;
85385;SDS011;75792;42.686;23.298;2024-03-08T08:49:03;6.97;;;4.30;;
85385;SDS011;75792;42.686;23.298;2024-03-08T08:51:29;5.45;;;4.53;;
85385;SDS011;75792;42.686;23.298;2024-03-08T08:53:55;6.32;;;3.50;;
85385;SDS011;75792;42.686;23.298;2024-03-08T08:56:21;6.68;;;3.97;;
85385;SDS011;75792;42.686;23.298;2024-03-08T08:58:47;6.07;;;3.63;;
85385;SDS011;75792;42.686;23.298;2024-03-08T09:01:14;4.93;;;4.13;;
85385;SDS011;75792;42.686;23.298;2024-03-08T09:03:39;5.10;;;3.78;;
85385;SDS011;75792;42.686;23.298;2024-03-08T09:06:08;4.95;;;3.80;;
85385;SDS011;75792;42.686;23.298;2024-03-08T09:08:36;3.80;;;3.45;;
85385;SDS011;75792;42.686;23.298;2024-03-08T09:11:03;6.60;;;3.47;;
85385;SDS011;75792;42.686;23.298;2024-03-08T09:13:29;5.53;;;3.75;;
85385;SDS011;75792;42.686;23.298;2024-03-08T09:15:55;4.75;;;3.72;;
85385;SDS011;75792;42.686;23.298;2024-03-08T09:18:20;4.43;;;2.65;;
85385;SDS011;75792;42.686;23.298;2024-03-08T09:20:45;7.22;;;3.58;;
85385;SDS011;75792;42.686;23.298;2024-03-08T09:23:12;5.57;;;4.82;;
85385;SDS011;75792;42.686;23.298;2024-03-08T09:25:37;3.58;;;2.75;;
85385;SDS011;75792;42.686;23.298;2024-03-08T09:28:03;5.07;;;4.65;;
85385;SDS011;75792;42.686;23.298;2024-03-08T09:30:28;3.92;;;3.50;;
85385;SDS011;75792;42.686;23.298;2024-03-08T09:32:54;3.30;;;2.47;;
85385;SDS011;75792;42.686;23.298;2024-03-08T09:35:19;3.65;;;2.92;;
85385;SDS011;75792;42.686;23.298;2024-03-08T09:37:45;4.93;;;4.03;;
85385;SDS011;75792;42.686;23.298;2024-03-08T09:40:12;4.13;;;3.03;;
85385;SDS011;75792;42.686;23.298;2024-03-08T09:42:40;4.78;;;3.22;;
85385;SDS011;75792;42.686;23.298;2024-03-08T09:45:10;4.88;;;3.35;;
85385;SDS011;75792;42.686;23.298;2024-03-08T09:47:37;5.18;;;3.33;;
85385;SDS011;75792;42.686;23.298;2024-03-08T09:50:05;16.30;;;3.47;;
85385;SDS011;75792;42.686;23.298;2024-03-08T09:52:34;4.80;;;3.47;;
85385;SDS011;75792;42.686;23.298;2024-03-08T09:55:01;6.70;;;2.90;;
85385;SDS011;75792;42.686;23.298;2024-03-08T09:57:26;3.95;;;2.08;;
85385;SDS011;75792;42.686;23.298;2024-03-08T09:59:52;3.50;;;3.00;;
85385;SDS011;75792;42.686;23.298;2024-03-08T10:02:18;1.85;;;1.73;;
85385;SDS011;75792;42.686;23.298;2024-03-08T10:07:11;5.88;;;2.40;;
85385;SDS011;75792;42.686;23.298;2024-03-08T10:09:37;3.95;;;2.53;;
85385;SDS011;75792;42.686;23.298;2024-03-08T10:12:04;6.88;;;3.65;;
85385;SDS011;75792;42.686;23.298;2024-03-08T10:14:30;2.50;;;2.22;;
85385;SDS011;75792;42.686;23.298;2024-03-08T10:16:56;4.30;;;2.00;;
85385;SDS011;75792;42.686;23.298;2024-03-08T10:19:24;3.92;;;3.30;;
85385;SDS011;75792;42.686;23.298;2024-03-08T10:21:50;4.03;;;2.20;;
85385;SDS011;75792;42.686;23.298;2024-03-08T10:24:19;3.92;;;2.25;;
85385;SDS011;75792;42.686;23.298;2024-03-08T10:26:45;5.00;;;3.20;;
85385;SDS011;75792;42.686;23.298;2024-03-08T10:29:11;2.15;;;1.88;;
85385;SDS011;75792;42.686;23.298;2024-03-08T10:31:42;3.80;;;1.98;;
85385;SDS011;75792;42.686;23.298;2024-03-08T10:34:09;3.55;;;3.15;;
85385;SDS011;75792;42.686;23.298;2024-03-08T10:36:35;2.60;;;2.08;;
85385;SDS011;75792;42.686;23.298;2024-03-08T10:39:03;5.25;;;2.13;;
85385;SDS011;75792;42.686;23.298;2024-03-08T10:41:32;1.98;;;1.75;;
85385;SDS011;75792;42.686;23.298;2024-03-08T10:44:39;3.75;;;3.47;;
85385;SDS011;75792;42.686;23.298;2024-03-08T10:49:30;3.80;;;2.00;;
85385;SDS011;75792;42.686;23.298;2024-03-08T10:52:01;3.67;;;2.25;;
85385;SDS011;75792;42.686;23.298;2024-03-08T10:54:29;3.47;;;1.85;;
85385;SDS011;75792;42.686;23.298;2024-03-08T10:56:57;2.63;;;2.42;;
85385;SDS011;75792;42.686;23.298;2024-03-08T10:59:23;2.33;;;2.03;;
85385;SDS011;75792;42.686;23.298;2024-03-08T11:01:52;1.80;;;1.55;;
85385;SDS011;75792;42.686;23.298;2024-03-08T11:06:47;2.42;;;2.22;;
85385;SDS011;75792;42.686;23.298;2024-03-08T11:09:27;3.97;;;2.83;;
85385;SDS011;75792;42.686;23.298;2024-03-08T11:12:39;3.22;;;2.45;;
85385;SDS011;75792;42.686;23.298;2024-03-08T11:14:49;4.45;;;4.13;;
85385;SDS011;75792;42.686;23.298;2024-03-08T11:17:20;3.25;;;2.47;;
85385;SDS011;75792;42.686;23.298;2024-03-08T11:19:59;2.88;;;2.45;;
85385;SDS011;75792;42.686;23.298;2024-03-08T11:22:31;2.45;;;2.25;;
85385;SDS011;75792;42.686;23.298;2024-03-08T11:24:58;2.83;;;1.70;;
85385;SDS011;75792;42.686;23.298;2024-03-08T11:27:30;3.60;;;3.20;;
85385;SDS011;75792;42.686;23.298;2024-03-08T11:30:00;2.63;;;1.63;;
85385;SDS011;75792;42.686;23.298;2024-03-08T11:32:35;4.72;;;2.30;;
85385;SDS011;75792;42.686;23.298;2024-03-08T11:35:01;1.77;;;1.40;;
85385;SDS011;75792;42.686;23.298;2024-03-08T11:37:30;2.15;;;1.90;;
85385;SDS011;75792;42.686;23.298;2024-03-08T11:39:59;2.47;;;2.00;;
85385;SDS011;75792;42.686;23.298;2024-03-08T11:42:26;4.43;;;2.63;;
85385;SDS011;75792;42.686;23.298;2024-03-08T11:47:17;3.17;;;1.90;;
85385;SDS011;75792;42.686;23.298;2024-03-08T11:52:13;2.38;;;1.75;;
85385;SDS011;75792;42.686;23.298;2024-03-08T11:54:40;1.83;;;1.55;;
85385;SDS011;75792;42.686;23.298;2024-03-08T11:57:06;4.45;;;4.15;;
85385;SDS011;75792;42.686;23.298;2024-03-08T12:02:01;2.80;;;1.95;;
85385;SDS011;75792;42.686;23.298;2024-03-08T12:04:28;2.40;;;1.58;;
85385;SDS011;75792;42.686;23.298;2024-03-08T12:09:19;2.83;;;1.40;;
85385;SDS011;75792;42.686;23.298;2024-03-08T12:11:47;2.80;;;1.58;;
85385;SDS011;75792;42.686;23.298;2024-03-08T12:14:14;4.13;;;0.93;;
85385;SDS011;75792;42.686;23.298;2024-03-08T12:16:40;3.85;;;1.38;;
85385;SDS011;75792;42.686;23.298;2024-03-08T12:19:07;2.63;;;1.67;;
85385;SDS011;75792;42.686;23.298;2024-03-08T12:21:34;3.50;;;3.30;;
85385;SDS011;75792;42.686;23.298;2024-03-08T12:24:09;2.67;;;2.25;;
85385;SDS011;75792;42.686;23.298;2024-03-08T12:26:36;3.00;;;2.13;;
85385;SDS011;75792;42.686;23.298;2024-03-08T12:31:43;2.70;;;2.22;;
85385;SDS011;75792;42.686;23.298;2024-03-08T12:34:08;2.58;;;1.48;;
85385;SDS011;75792;42.686;23.298;2024-03-08T12:36:35;3.92;;;3.08;;
85385;SDS011;75792;42.686;23.298;2024-03-08T12:39:05;5.00;;;4.63;;
85385;SDS011;75792;42.686;23.298;2024-03-08T12:41:32;3.13;;;1.30;;
85385;SDS011;75792;42.686;23.298;2024-03-08T12:44:04;1.77;;;1.33;;
85385;SDS011;75792;42.686;23.298;2024-03-08T12:46:32;3.03;;;2.13;;
85385;SDS011;75792;42.686;23.298;2024-03-08T12:48:58;2.38;;;1.55;;
85385;SDS011;75792;42.686;23.298;2024-03-08T12:51:24;1.90;;;1.75;;
85385;SDS011;75792;42.686;23.298;2024-03-08T12:53:50;2.58;;;2.17;;
85385;SDS011;75792;42.686;23.298;2024-03-08T12:56:28;3.75;;;2.13;;
85385;SDS011;75792;42.686;23.298;2024-03-08T12:58:55;3.80;;;2.22;;
85385;SDS011;75792;42.686;23.298;2024-03-08T13:01:21;1.75;;;1.63;;
85385;SDS011;75792;42.686;23.298;2024-03-08T13:03:47;2.22;;;2.03;;
85385;SDS011;75792;42.686;23.298;2024-03-08T13:06:14;4.53;;;4.22;;
85385;SDS011;75792;42.686;23.298;2024-03-08T13:08:40;3.10;;;2.17;;
85385;SDS011;75792;42.686;23.298;2024-03-08T13:11:10;5.20;;;2.10;;
85385;SDS011;75792;42.686;23.298;2024-03-08T13:13:42;5.28;;;2.00;;
85385;SDS011;75792;42.686;23.298;2024-03-08T13:16:09;3.38;;;1.67;;
85385;SDS011;75792;42.686;23.298;2024-03-08T13:18:35;1.52;;;1.13;;
85385;SDS011;75792;42.686;23.298;2024-03-08T13:21:01;4.53;;;3.13;;
85385;SDS011;75792;42.686;23.298;2024-03-08T13:23:31;3.53;;;1.95;;
85385;SDS011;75792;42.686;23.298;2024-03-08T13:25:56;5.53;;;3.17;;
85385;SDS011;75792;42.686;23.298;2024-03-08T13:28:22;1.83;;;1.30;;
85385;SDS011;75792;42.686;23.298;2024-03-08T13:30:48;1.52;;;1.23;;
85385;SDS011;75792;42.686;23.298;2024-03-08T13:33:13;4.82;;;1.60;;
85385;SDS011;75792;42.686;23.298;2024-03-08T13:35:39;2.60;;;1.45;;
85385;SDS011;75792;42.686;23.298;2024-03-08T13:38:06;2.50;;;1.60;;
85385;SDS011;75792;42.686;23.298;2024-03-08T13:40:34;2.78;;;1.10;;
85385;SDS011;75792;42.686;23.298;2024-03-08T13:42:59;7.03;;;6.05;;
85385;SDS011;75792;42.686;23.298;2024-03-08T13:45:26;7.88;;;5.05;;
85385;SDS011;75792;42.686;23.298;2024-03-08T13:47:52;5.70;;;5.13;;
85385;SDS011;75792;42.686;23.298;2024-03-08T13:50:18;9.10;;;5.85;;
85385;SDS011;75792;42.686;23.298;2024-03-08T13:52:49;9.80;;;4.63;;
85385;SDS011;75792;42.686;23.298;2024-03-08T13:55:17;6.78;;;2.75;;
85385;SDS011;75792;42.686;23.298;2024-03-08T13:57:43;2.92;;;1.83;;
85385;SDS011;75792;42.686;23.298;2024-03-08T14:00:10;3.25;;;1.67;;
85385;SDS011;75792;42.686;23.298;2024-03-08T14:02:36;3.33;;;2.20;;
85385;SDS011;75792;42.686;23.298;2024-03-08T14:05:02;5.00;;;2.47;;
85385;SDS011;75792;42.686;23.298;2024-03-08T14:09:54;7.20;;;3.67;;
85385;SDS011;75792;42.686;23.298;2024-03-08T14:12:19;8.55;;;3.35;;
85385;SDS011;75792;42.686;23.298;2024-03-08T14:17:11;5.60;;;3.15;;
85385;SDS011;75792;42.686;23.298;2024-03-08T14:19:41;4.20;;;2.92;;
85385;SDS011;75792;42.686;23.298;2024-03-08T14:22:07;5.57;;;2.15;;
85385;SDS011;75792;42.686;23.298;2024-03-08T14:24:35;6.05;;;3.58;;
85385;SDS011;75792;42.686;23.298;2024-03-08T14:29:28;4.82;;;3.35;;
85385;SDS011;75792;42.686;23.298;2024-03-08T14:31:57;3.47;;;3.13;;
85385;SDS011;75792;42.686;23.298;2024-03-08T14:34:24;3.22;;;2.38;;
85385;SDS011;75792;42.686;23.298;2024-03-08T14:36:54;2.33;;;1.77;;
85385;SDS011;75792;42.686;23.298;2024-03-08T14:39:19;3.10;;;2.20;;
85385;SDS011;75792;42.686;23.298;2024-03-08T14:41:51;4.82;;;2.97;;
85385;SDS011;75792;42.686;23.298;2024-03-08T14:44:19;4.40;;;3.00;;
85385;SDS011;75792;42.686;23.298;2024-03-08T14:46:44;4.38;;;2.88;;
85385;SDS011;75792;42.686;23.298;2024-03-08T14:49:10;3.42;;;1.90;;
85385;SDS011;75792;42.686;23.298;2024-03-08T14:51:36;2.92;;;2.55;;
85385;SDS011;75792;42.686;23.298;2024-03-08T14:54:02;4.18;;;2.78;;
85385;SDS011;75792;42.686;23.298;2024-03-08T14:56:27;5.78;;;3.15;;
85385;SDS011;75792;42.686;23.298;2024-03-08T14:58:54;2.88;;;2.15;;
85385;SDS011;75792;42.686;23.298;2024-03-08T15:01:20;4.03;;;3.17;;
85385;SDS011;75792;42.686;23.298;2024-03-08T15:03:49;7.70;;;2.35;;
85385;SDS011;75792;42.686;23.298;2024-03-08T15:06:15;5.60;;;2.78;;